PWSweather.com
Personal Weather Stations
Station Observations
MARRWS
Allansford VictoriaAU 3277

Allansford VictoriaAU 3277

Lat: -38.4003683814149, Lon: 142.569826841354

Elevation: 36

Station Type: Fine Offset X7062

http://home.vicnet.net.au/~marr/Weather/

Latest ConditionsUpdated 12:30:02 PM GMT+10:10 Monday, Aug 3, 2015
Currently Today's Max Today's Min Today's Average
Temperature 55.8°F13.2°C 55.8°F13.2°C 45.0°F7.2°C 49.6°F9.8°C
Dew Point 36.9°F2.7°C 44.1°F6.7°C 33.4°F0.8°C 39.9°F4.4°C
Winds 6.7 mph SW10.8 kmh SW 19.0 mph WNW30.6 kmh WNW - 10.6 mph 17.1 kmh
Wind Gusts 15.9 mph25.6 kmh 35.8 mph57.6 kmh - -
Humidity 49% 85% 49% 70%
Pressure 30.02 in1016.6 mb 30.03 in1016.9 mb 29.73 in1006.8 mb -
Precipitation - 0.27 in6.9 mm - -
Hour Temp Dew Point Humidity Winds Wind Gusts Pressure Precip Precip Rate Daily Precip Total
12:30 PM 55.8°F13.2°C 36.9°F2.7°C 49% 6.7 mph SW10.8 kmh SW 15.9 mph25.6 kmh 30.02 in1016.6 mb 0.00 in0.0 mm 0.00 in0.0 mm 0.27 in6.9 mm
12:20 PM 54.5°F12.5°C 35.7°F2.1°C 49% 7.4 mph SW11.9 kmh SW 15.2 mph24.5 kmh 30.03 in1016.9 mb 0.00 in0.0 mm 0.00 in0.0 mm 0.27 in6.9 mm
12:10 PM 52.3°F11.3°C 34.3°F1.3°C 50% 9.5 mph WSW15.3 kmh WSW 18.3 mph29.5 kmh 30.03 in1016.9 mb 0.00 in0.0 mm 0.00 in0.0 mm 0.27 in6.9 mm
12:00 PM 52.0°F11.1°C 33.4°F0.8°C 49% 7.2 mph SSW11.6 kmh SSW 15.2 mph24.5 kmh 30.03 in1016.9 mb 0.00 in0.0 mm 0.00 in0.0 mm 0.27 in6.9 mm
11:50 AM 54.9°F12.7°C 36.6°F2.6°C 50% 6.3 mph S10.1 kmh S 16.8 mph27.0 kmh 30.03 in1016.9 mb 0.00 in0.0 mm 0.00 in0.0 mm 0.27 in6.9 mm
11:40 AM 54.5°F12.5°C 36.3°F2.4°C 50% 7.5 mph SW12.1 kmh SW 16.8 mph27.0 kmh 30.03 in1016.9 mb 0.00 in0.0 mm 0.00 in0.0 mm 0.27 in6.9 mm
11:30 AM 53.6°F12.0°C 37.4°F3.0°C 54% 6.4 mph SW10.3 kmh SW 13.6 mph21.9 kmh 30.03 in1016.9 mb 0.00 in0.0 mm 0.00 in0.0 mm 0.27 in6.9 mm
11:20 AM 55.4°F13.0°C 37.6°F3.1°C 51% 9.8 mph S15.8 kmh S 20.6 mph33.2 kmh 30.03 in1016.9 mb 0.00 in0.0 mm 0.00 in0.0 mm 0.27 in6.9 mm
11:10 AM 55.4°F13.0°C 37.6°F3.1°C 51% 9.8 mph S15.8 kmh S 20.6 mph33.2 kmh 30.03 in1016.9 mb 0.00 in0.0 mm 0.00 in0.0 mm 0.27 in6.9 mm
11:00 AM 52.0°F11.1°C 37.7°F3.2°C 58% 4.5 mph S7.2 kmh S 6.9 mph11.1 kmh 30.02 in1016.6 mb 0.00 in0.0 mm 0.00 in0.0 mm 0.27 in6.9 mm
10:50 AM 52.0°F11.1°C 37.7°F3.2°C 58% 4.5 mph S7.2 kmh S 6.9 mph11.1 kmh 30.02 in1016.6 mb 0.00 in0.0 mm 0.00 in0.0 mm 0.27 in6.9 mm
10:40 AM 52.0°F11.1°C 37.7°F3.2°C 58% 4.5 mph S7.2 kmh S 6.9 mph11.1 kmh 30.02 in1016.6 mb 0.00 in0.0 mm 0.00 in0.0 mm 0.27 in6.9 mm
10:30 AM 53.8°F12.1°C 35.6°F2.0°C 50% 7.6 mph S12.2 kmh S 15.2 mph24.5 kmh 30.01 in1016.3 mb 0.00 in0.0 mm 0.00 in0.0 mm 0.27 in6.9 mm
10:20 AM 53.2°F11.8°C 35.1°F1.7°C 50% 6.9 mph W11.1 kmh W 15.2 mph24.5 kmh 30.00 in1015.9 mb 0.00 in0.0 mm 0.00 in0.0 mm 0.27 in6.9 mm
10:10 AM 50.5°F10.3°C 35.0°F1.7°C 55% 6.0 mph S9.7 kmh S 9.8 mph15.8 kmh 29.99 in1015.6 mb 0.00 in0.0 mm 0.00 in0.0 mm 0.27 in6.9 mm
10:00 AM 50.9°F10.5°C 36.7°F2.6°C 58% 9.0 mph E14.5 kmh E 13.0 mph20.9 kmh 29.99 in1015.6 mb 0.00 in0.0 mm 0.00 in0.0 mm 0.27 in6.9 mm
09:50 AM 50.9°F10.5°C 36.7°F2.6°C 58% 9.0 mph E14.5 kmh E 13.0 mph20.9 kmh 29.99 in1015.6 mb 0.00 in0.0 mm 0.00 in0.0 mm 0.27 in6.9 mm
09:40 AM 50.9°F10.5°C 36.7°F2.6°C 58% 9.0 mph E14.5 kmh E 13.0 mph20.9 kmh 29.99 in1015.6 mb 0.00 in0.0 mm 0.00 in0.0 mm 0.27 in6.9 mm
09:30 AM 50.9°F10.5°C 36.7°F2.6°C 58% 6.1 mph SSW9.8 kmh SSW 13.0 mph20.9 kmh 29.99 in1015.6 mb 0.00 in0.0 mm 0.00 in0.0 mm 0.27 in6.9 mm
09:20 AM 50.0°F10.0°C 37.1°F2.8°C 61% 7.5 mph SW12.1 kmh SW 19.0 mph30.6 kmh 29.99 in1015.6 mb 0.00 in0.0 mm 0.00 in0.0 mm 0.27 in6.9 mm
09:10 AM 48.9°F9.4°C 37.7°F3.2°C 65% 6.5 mph S10.5 kmh S 15.2 mph24.5 kmh 29.99 in1015.6 mb 0.01 in0.3 mm 0.00 in0.0 mm 0.27 in6.9 mm
09:00 AM 49.6°F9.8°C 35.9°F2.2°C 59% 6.9 mph N11.1 kmh N 13.0 mph20.9 kmh 29.98 in1015.2 mb 0.01 in0.3 mm 0.00 in0.0 mm 0.27 in6.9 mm
08:50 AM 49.6°F9.8°C 35.9°F2.2°C 59% 6.9 mph NNW11.1 kmh NNW 13.0 mph20.9 kmh 29.98 in1015.2 mb 0.01 in0.3 mm 0.00 in0.0 mm 0.27 in6.9 mm
08:40 AM 49.1°F9.5°C 34.1°F1.2°C 56% 10.7 mph E17.2 kmh E 17.4 mph28.0 kmh 29.97 in1014.9 mb 0.01 in0.3 mm 0.00 in0.0 mm 0.27 in6.9 mm
08:30 AM 49.3°F9.6°C 34.3°F1.3°C 56% 8.8 mph W14.2 kmh W 16.8 mph27.0 kmh 29.96 in1014.6 mb 0.01 in0.3 mm 0.00 in0.0 mm 0.27 in6.9 mm
08:20 AM 49.1°F9.5°C 34.5°F1.4°C 57% 10.3 mph SW16.6 kmh SW 21.3 mph34.3 kmh 29.96 in1014.6 mb 0.01 in0.3 mm 0.06 in1.5 mm 0.27 in6.9 mm
08:10 AM 45.9°F7.7°C 41.3°F5.2°C 84% 6.9 mph S11.1 kmh S 13.0 mph20.9 kmh 29.95 in1014.2 mb 0.00 in0.0 mm 0.00 in0.0 mm 0.26 in6.6 mm
08:00 AM 45.9°F7.7°C 41.3°F5.2°C 84% 6.9 mph S11.1 kmh S 13.0 mph20.9 kmh 29.95 in1014.2 mb 0.00 in0.0 mm 0.00 in0.0 mm 0.26 in6.6 mm
07:50 AM 45.9°F7.7°C 41.3°F5.2°C 84% 6.9 mph S11.1 kmh S 13.0 mph20.9 kmh 29.94 in1013.9 mb 0.00 in0.0 mm 0.00 in0.0 mm 0.26 in6.6 mm
07:40 AM 45.9°F7.7°C 41.3°F5.2°C 84% 6.9 mph S11.1 kmh S 13.0 mph20.9 kmh 29.93 in1013.5 mb 0.00 in0.0 mm 0.00 in0.0 mm 0.26 in6.6 mm
07:30 AM 45.9°F7.7°C 41.3°F5.2°C 84% 6.9 mph S11.1 kmh S 13.0 mph20.9 kmh 29.92 in1013.2 mb 0.00 in0.0 mm 0.00 in0.0 mm 0.26 in6.6 mm
07:20 AM 45.9°F7.7°C 41.3°F5.2°C 84% 6.9 mph S11.1 kmh S 13.0 mph20.9 kmh 29.92 in1013.2 mb 0.01 in0.3 mm 0.00 in0.0 mm 0.26 in6.6 mm
07:10 AM 45.9°F7.7°C 41.3°F5.2°C 84% 6.9 mph S11.1 kmh S 13.0 mph20.9 kmh 29.91 in1012.9 mb 0.01 in0.3 mm 0.00 in0.0 mm 0.26 in6.6 mm
07:00 AM 45.9°F7.7°C 41.3°F5.2°C 84% 6.9 mph S11.1 kmh S 13.0 mph20.9 kmh 29.90 in1012.5 mb 0.01 in0.3 mm 0.00 in0.0 mm 0.26 in6.6 mm
06:50 AM 45.9°F7.7°C 41.3°F5.2°C 84% 6.9 mph S11.1 kmh S 13.0 mph20.9 kmh 29.89 in1012.2 mb 0.01 in0.3 mm 0.00 in0.0 mm 0.26 in6.6 mm
06:40 AM 45.9°F7.7°C 41.3°F5.2°C 84% 6.5 mph SSW10.5 kmh SSW 13.0 mph20.9 kmh 29.88 in1011.9 mb 0.01 in0.3 mm 0.00 in0.0 mm 0.26 in6.6 mm
06:30 AM 45.7°F7.6°C 40.8°F4.9°C 83% 11.3 mph W18.2 kmh W 21.3 mph34.3 kmh 29.87 in1011.5 mb 0.01 in0.3 mm 0.06 in1.5 mm 0.26 in6.6 mm
06:20 AM 45.0°F7.2°C 39.5°F4.2°C 81% 14.5 mph SW23.3 kmh SW 25.9 mph41.7 kmh 29.88 in1011.9 mb 0.00 in0.0 mm 0.00 in0.0 mm 0.25 in6.4 mm
06:10 AM 45.0°F7.2°C 39.5°F4.2°C 81% 14.5 mph SW23.3 kmh SW 25.9 mph41.7 kmh 29.88 in1011.9 mb 0.02 in0.5 mm 0.00 in0.0 mm 0.25 in6.4 mm
06:00 AM 45.0°F7.2°C 39.5°F4.2°C 81% 14.5 mph SW23.3 kmh SW 25.9 mph41.7 kmh 29.86 in1011.2 mb 0.02 in0.5 mm 0.00 in0.0 mm 0.25 in6.4 mm
05:50 AM 45.0°F7.2°C 39.5°F4.2°C 81% 14.5 mph SW23.3 kmh SW 25.9 mph41.7 kmh 29.84 in1010.5 mb 0.07 in1.8 mm 0.00 in0.0 mm 0.25 in6.4 mm
05:40 AM 45.0°F7.2°C 39.5°F4.2°C 81% 14.5 mph SW23.3 kmh SW 25.9 mph41.7 kmh 29.84 in1010.5 mb 0.07 in1.8 mm 0.00 in0.0 mm 0.25 in6.4 mm
05:30 AM 45.0°F7.2°C 39.5°F4.2°C 81% 14.5 mph SW23.3 kmh SW 25.9 mph41.7 kmh 29.84 in1010.5 mb 0.07 in1.8 mm 0.12 in3.0 mm 0.25 in6.4 mm
05:20 AM 47.1°F8.4°C 40.9°F4.9°C 79% 10.7 mph SW17.2 kmh SW 15.9 mph25.6 kmh 29.84 in1010.5 mb 0.05 in1.3 mm 0.00 in0.0 mm 0.22 in5.6 mm
05:10 AM 47.1°F8.4°C 40.9°F4.9°C 79% 10.7 mph SW17.2 kmh SW 15.9 mph25.6 kmh 29.84 in1010.5 mb 0.05 in1.3 mm 0.30 in7.6 mm 0.22 in5.6 mm
05:00 AM 50.2°F10.1°C 42.2°F5.7°C 74% 13.8 mph SW22.2 kmh SW 20.6 mph33.2 kmh 29.83 in1010.2 mb 0.00 in0.0 mm 0.00 in0.0 mm 0.18 in4.6 mm
04:50 AM 50.2°F10.1°C 42.2°F5.7°C 74% 13.8 mph SW22.2 kmh SW 20.6 mph33.2 kmh 29.81 in1009.5 mb 0.00 in0.0 mm 0.00 in0.0 mm 0.18 in4.6 mm
04:40 AM 50.2°F10.1°C 42.2°F5.7°C 74% 13.8 mph SW22.2 kmh SW 20.6 mph33.2 kmh 29.81 in1009.5 mb 0.00 in0.0 mm 0.00 in0.0 mm 0.18 in4.6 mm
04:30 AM 50.2°F10.1°C 42.2°F5.7°C 74% 13.8 mph SW22.2 kmh SW 20.6 mph33.2 kmh 29.80 in1009.1 mb 0.00 in0.0 mm 0.00 in0.0 mm 0.18 in4.6 mm
04:20 AM 50.2°F10.1°C 42.2°F5.7°C 74% 13.8 mph SW22.2 kmh SW 20.6 mph33.2 kmh 29.80 in1009.1 mb 0.00 in0.0 mm 0.00 in0.0 mm 0.18 in4.6 mm
04:10 AM 50.2°F10.1°C 42.2°F5.7°C 74% 13.8 mph SW22.2 kmh SW 20.6 mph33.2 kmh 29.79 in1008.8 mb 0.00 in0.0 mm 0.00 in0.0 mm 0.18 in4.6 mm
04:00 AM 50.2°F10.1°C 42.2°F5.7°C 74% 13.8 mph SW22.2 kmh SW 20.6 mph33.2 kmh 29.79 in1008.8 mb 0.00 in0.0 mm 0.00 in0.0 mm 0.18 in4.6 mm
03:50 AM 50.2°F10.1°C 42.2°F5.7°C 74% 13.8 mph SW22.2 kmh SW 20.6 mph33.2 kmh 29.78 in1008.5 mb 0.02 in0.5 mm 0.00 in0.0 mm 0.18 in4.6 mm
03:40 AM 50.2°F10.1°C 42.2°F5.7°C 74% 13.8 mph SW22.2 kmh SW 20.6 mph33.2 kmh 29.78 in1008.5 mb 0.02 in0.5 mm 0.00 in0.0 mm 0.18 in4.6 mm
03:30 AM 50.2°F10.1°C 42.2°F5.7°C 74% 13.8 mph SW22.2 kmh SW 20.6 mph33.2 kmh 29.77 in1008.1 mb 0.02 in0.5 mm 0.00 in0.0 mm 0.18 in4.6 mm
03:20 AM 50.2°F10.1°C 42.2°F5.7°C 74% 13.8 mph SW22.2 kmh SW 20.6 mph33.2 kmh 29.77 in1008.1 mb 0.02 in0.5 mm 0.00 in0.0 mm 0.18 in4.6 mm
03:10 AM 50.2°F10.1°C 42.2°F5.7°C 74% 15.9 mph WSW25.6 kmh WSW 34.2 mph55.0 kmh 29.77 in1008.1 mb 0.02 in0.5 mm 0.12 in3.0 mm 0.18 in4.6 mm
03:00 AM 51.4°F10.8°C 42.0°F5.6°C 70% 17.5 mph SW28.2 kmh SW 27.3 mph43.9 kmh 29.77 in1008.1 mb 0.00 in0.0 mm 0.00 in0.0 mm 0.15 in3.8 mm
02:50 AM 51.4°F10.8°C 42.0°F5.6°C 70% 17.5 mph SW28.2 kmh SW 27.3 mph43.9 kmh 29.76 in1007.8 mb 0.02 in0.5 mm 0.00 in0.0 mm 0.15 in3.8 mm
02:40 AM 51.4°F10.8°C 42.0°F5.6°C 70% 17.5 mph SW28.2 kmh SW 27.3 mph43.9 kmh 29.76 in1007.8 mb 0.02 in0.5 mm 0.00 in0.0 mm 0.15 in3.8 mm
02:30 AM 51.4°F10.8°C 42.0°F5.6°C 70% 17.5 mph SW28.2 kmh SW 27.3 mph43.9 kmh 29.76 in1007.8 mb 0.02 in0.5 mm 0.00 in0.0 mm 0.15 in3.8 mm
02:20 AM 51.4°F10.8°C 42.0°F5.6°C 70% 17.5 mph SW28.2 kmh SW 27.3 mph43.9 kmh 29.75 in1007.5 mb 0.02 in0.5 mm 0.00 in0.0 mm 0.15 in3.8 mm
02:10 AM 51.4°F10.8°C 42.0°F5.6°C 70% 17.4 mph WSW28.0 kmh WSW 30.4 mph48.9 kmh 29.75 in1007.5 mb 0.02 in0.5 mm 0.00 in0.0 mm 0.15 in3.8 mm
02:00 AM 51.6°F10.9°C 41.0°F5.0°C 67% 15.2 mph NW24.5 kmh NW 25.9 mph41.7 kmh 29.75 in1007.5 mb 0.15 in3.8 mm 0.02 in0.5 mm 0.15 in3.8 mm
01:50 AM 50.2°F10.1°C 42.9°F6.1°C 76% 15.8 mph NW25.4 kmh NW 22.8 mph36.7 kmh 29.75 in1007.5 mb 0.13 in3.3 mm 0.00 in0.0 mm 0.13 in3.3 mm
01:40 AM 50.2°F10.1°C 42.9°F6.1°C 76% 15.8 mph NW25.4 kmh NW 22.8 mph36.7 kmh 29.74 in1007.1 mb 0.13 in3.3 mm 0.00 in0.0 mm 0.13 in3.3 mm
01:30 AM 50.2°F10.1°C 42.9°F6.1°C 76% 15.8 mph NW25.4 kmh NW 22.8 mph36.7 kmh 29.74 in1007.1 mb 0.13 in3.3 mm 0.00 in0.0 mm 0.13 in3.3 mm
01:20 AM 50.9°F10.5°C 43.3°F6.3°C 75% 16.6 mph W26.7 kmh W 35.8 mph57.6 kmh 29.75 in1007.5 mb 0.13 in3.3 mm 0.00 in0.0 mm 0.13 in3.3 mm
01:10 AM 51.4°F10.8°C 44.1°F6.7°C 76% 19.0 mph WNW30.6 kmh WNW 25.1 mph40.4 kmh 29.73 in1006.8 mb 0.13 in3.3 mm 0.78 in19.8 mm 0.13 in3.3 mm
01:00 AM 47.3°F8.5°C 43.0°F6.1°C 85% 7.0 mph NW11.3 kmh NW 13.0 mph20.9 kmh 29.73 in1006.8 mb 0.00 in0.0 mm 0.00 in0.0 mm 0.00 in0.0 mm
12:50 AM 47.3°F8.5°C 43.0°F6.1°C 85% 7.0 mph NW11.3 kmh NW 13.0 mph20.9 kmh 29.73 in1006.8 mb 0.00 in0.0 mm 0.00 in0.0 mm 0.00 in0.0 mm
12:40 AM 47.3°F8.5°C 43.0°F6.1°C 85% 7.0 mph NW11.3 kmh NW 13.0 mph20.9 kmh 29.73 in1006.8 mb 0.00 in0.0 mm 0.00 in0.0 mm 0.00 in0.0 mm
12:30 AM 47.3°F8.5°C 43.0°F6.1°C 85% 7.0 mph NW11.3 kmh NW 13.0 mph20.9 kmh 29.73 in1006.8 mb 0.00 in0.0 mm 0.00 in0.0 mm 0.00 in0.0 mm
12:20 AM 47.3°F8.5°C 43.0°F6.1°C 85% 7.0 mph NW11.3 kmh NW 13.0 mph20.9 kmh 29.73 in1006.8 mb 0.00 in0.0 mm 0.00 in0.0 mm 0.00 in0.0 mm
12:10 AM 47.3°F8.5°C 43.0°F6.1°C 85% 7.0 mph NW11.3 kmh NW 13.0 mph20.9 kmh 29.73 in1006.8 mb 0.00 in0.0 mm 0.00 in0.0 mm 0.00 in0.0 mm
12:00 AM 47.3°F8.5°C 43.0°F6.1°C 85% 7.0 mph NW11.3 kmh NW 13.0 mph20.9 kmh 29.73 in1006.8 mb 0.00 in0.0 mm 0.00 in0.0 mm 0.00 in0.0 mm